sensor_id;sensor_type;location;lat;lon;timestamp;temperature;humidity
71177;DHT22;58877;51.992;4.504;2023-12-20T00:02:01;8.61;78.98
71177;DHT22;58877;51.992;4.504;2023-12-20T00:04:27;8.57;79.38
71177;DHT22;58877;51.992;4.504;2023-12-20T00:06:53;8.50;79.35
71177;DHT22;58877;51.992;4.504;2023-12-20T00:09:19;8.61;79.72
71177;DHT22;58877;51.992;4.504;2023-12-20T00:11:46;8.59;79.69
71177;DHT22;58877;51.992;4.504;2023-12-20T00:14:11;8.53;79.76
71177;DHT22;58877;51.992;4.504;2023-12-20T00:16:37;8.64;79.94
71177;DHT22;58877;51.992;4.504;2023-12-20T00:19:02;8.60;79.80
71177;DHT22;58877;51.992;4.504;2023-12-20T00:21:29;8.54;79.78
71177;DHT22;58877;51.992;4.504;2023-12-20T00:23:54;8.61;79.67
71177;DHT22;58877;51.992;4.504;2023-12-20T00:26:19;8.66;79.44
71177;DHT22;58877;51.992;4.504;2023-12-20T00:28:51;8.69;79.13
71177;DHT22;58877;51.992;4.504;2023-12-20T00:31:16;8.74;79.17
71177;DHT22;58877;51.992;4.504;2023-12-20T00:33:42;8.67;79.11
71177;DHT22;58877;51.992;4.504;2023-12-20T00:36:09;8.67;78.99
71177;DHT22;58877;51.992;4.504;2023-12-20T00:38:35;8.70;78.82
71177;DHT22;58877;51.992;4.504;2023-12-20T00:41:00;8.74;78.88
71177;DHT22;58877;51.992;4.504;2023-12-20T00:43:26;8.71;78.79
71177;DHT22;58877;51.992;4.504;2023-12-20T00:45:52;8.73;78.70
71177;DHT22;58877;51.992;4.504;2023-12-20T00:48:23;8.71;78.87
71177;DHT22;58877;51.992;4.504;2023-12-20T00:50:49;8.61;79.20
71177;DHT22;58877;51.992;4.504;2023-12-20T00:53:16;8.69;79.12
71177;DHT22;58877;51.992;4.504;2023-12-20T00:55:41;8.56;79.07
71177;DHT22;58877;51.992;4.504;2023-12-20T00:58:10;8.56;79.09
71177;DHT22;58877;51.992;4.504;2023-12-20T01:00:37;8.59;78.72
71177;DHT22;58877;51.992;4.504;2023-12-20T01:03:03;8.61;78.88
71177;DHT22;58877;51.992;4.504;2023-12-20T01:05:29;8.64;78.88
71177;DHT22;58877;51.992;4.504;2023-12-20T01:07:54;8.71;78.91
71177;DHT22;58877;51.992;4.504;2023-12-20T01:10:23;8.71;78.74
71177;DHT22;58877;51.992;4.504;2023-12-20T01:12:51;8.71;78.98
71177;DHT22;58877;51.992;4.504;2023-12-20T01:15:20;8.63;78.92
71177;DHT22;58877;51.992;4.504;2023-12-20T01:17:48;8.71;78.75
71177;DHT22;58877;51.992;4.504;2023-12-20T01:20:14;8.73;78.48
71177;DHT22;58877;51.992;4.504;2023-12-20T01:22:43;8.74;78.83
71177;DHT22;58877;51.992;4.504;2023-12-20T01:25:14;8.83;78.80
71177;DHT22;58877;51.992;4.504;2023-12-20T01:27:39;8.83;78.57
71177;DHT22;58877;51.992;4.504;2023-12-20T01:30:06;8.79;78.42
71177;DHT22;58877;51.992;4.504;2023-12-20T01:32:34;8.79;78.58
71177;DHT22;58877;51.992;4.504;2023-12-20T01:35:00;8.71;78.41
71177;DHT22;58877;51.992;4.504;2023-12-20T01:37:26;8.80;78.41
71177;DHT22;58877;51.992;4.504;2023-12-20T01:39:52;8.85;78.37
71177;DHT22;58877;51.992;4.504;2023-12-20T01:42:18;8.73;78.11
71177;DHT22;58877;51.992;4.504;2023-12-20T01:44:43;8.84;78.24
71177;DHT22;58877;51.992;4.504;2023-12-20T01:47:09;8.71;78.14
71177;DHT22;58877;51.992;4.504;2023-12-20T01:49:35;8.79;77.98
71177;DHT22;58877;51.992;4.504;2023-12-20T01:52:01;8.83;78.03
71177;DHT22;58877;51.992;4.504;2023-12-20T01:54:31;8.88;77.81
71177;DHT22;58877;51.992;4.504;2023-12-20T01:57:05;8.92;77.82
71177;DHT22;58877;51.992;4.504;2023-12-20T01:59:31;8.84;78.22
71177;DHT22;58877;51.992;4.504;2023-12-20T02:01:57;8.77;78.57
71177;DHT22;58877;51.992;4.504;2023-12-20T02:04:23;8.87;78.59
71177;DHT22;58877;51.992;4.504;2023-12-20T02:06:52;8.91;78.50
71177;DHT22;58877;51.992;4.504;2023-12-20T02:09:22;8.77;78.69
71177;DHT22;58877;51.992;4.504;2023-12-20T02:11:49;8.80;78.85
71177;DHT22;58877;51.992;4.504;2023-12-20T02:14:14;8.88;78.57
71177;DHT22;58877;51.992;4.504;2023-12-20T02:16:41;8.85;78.30
71177;DHT22;58877;51.992;4.504;2023-12-20T02:19:13;8.81;78.37
71177;DHT22;58877;51.992;4.504;2023-12-20T02:21:39;8.80;78.19
71177;DHT22;58877;51.992;4.504;2023-12-20T02:24:05;8.80;78.20
71177;DHT22;58877;51.992;4.504;2023-12-20T02:26:32;8.85;78.19
71177;DHT22;58877;51.992;4.504;2023-12-20T02:28:59;8.83;78.32
71177;DHT22;58877;51.992;4.504;2023-12-20T02:31:25;8.79;78.39
71177;DHT22;58877;51.992;4.504;2023-12-20T02:33:50;8.81;78.26
71177;DHT22;58877;51.992;4.504;2023-12-20T02:36:16;8.87;78.09
71177;DHT22;58877;51.992;4.504;2023-12-20T02:38:47;8.64;78.41
71177;DHT22;58877;51.992;4.504;2023-12-20T02:41:13;8.64;78.57
71177;DHT22;58877;51.992;4.504;2023-12-20T02:43:43;8.63;78.26
71177;DHT22;58877;51.992;4.504;2023-12-20T02:46:09;8.71;78.12
71177;DHT22;58877;51.992;4.504;2023-12-20T02:48:34;8.74;78.18
71177;DHT22;58877;51.992;4.504;2023-12-20T02:51:03;8.71;78.03
71177;DHT22;58877;51.992;4.504;2023-12-20T02:53:28;8.88;78.04
71177;DHT22;58877;51.992;4.504;2023-12-20T02:55:57;8.84;78.14
71177;DHT22;58877;51.992;4.504;2023-12-20T02:58:26;8.84;78.40
71177;DHT22;58877;51.992;4.504;2023-12-20T03:00:51;8.88;78.54
71177;DHT22;58877;51.992;4.504;2023-12-20T03:03:17;8.80;78.53
71177;DHT22;58877;51.992;4.504;2023-12-20T03:05:45;8.71;78.43
71177;DHT22;58877;51.992;4.504;2023-12-20T03:08:11;8.74;78.29
71177;DHT22;58877;51.992;4.504;2023-12-20T03:10:39;8.73;78.25
71177;DHT22;58877;51.992;4.504;2023-12-20T03:13:05;8.71;78.09
71177;DHT22;58877;51.992;4.504;2023-12-20T03:15:30;8.64;77.99
71177;DHT22;58877;51.992;4.504;2023-12-20T03:17:56;8.69;78.06
71177;DHT22;58877;51.992;4.504;2023-12-20T03:20:21;8.67;77.98
71177;DHT22;58877;51.992;4.504;2023-12-20T03:22:50;8.71;78.13
71177;DHT22;58877;51.992;4.504;2023-12-20T03:25:15;8.74;78.08
71177;DHT22;58877;51.992;4.504;2023-12-20T03:27:41;8.69;78.04
71177;DHT22;58877;51.992;4.504;2023-12-20T03:30:07;8.70;77.76
71177;DHT22;58877;51.992;4.504;2023-12-20T03:32:33;8.74;77.51
71177;DHT22;58877;51.992;4.504;2023-12-20T03:35:01;8.79;77.59
71177;DHT22;58877;51.992;4.504;2023-12-20T03:37:30;8.61;77.81
71177;DHT22;58877;51.992;4.504;2023-12-20T03:39:56;8.59;78.08
71177;DHT22;58877;51.992;4.504;2023-12-20T03:42:24;8.60;77.71
71177;DHT22;58877;51.992;4.504;2023-12-20T03:44:50;8.54;77.55
71177;DHT22;58877;51.992;4.504;2023-12-20T03:47:15;8.57;77.56
71177;DHT22;58877;51.992;4.504;2023-12-20T03:49:41;8.53;77.72
71177;DHT22;58877;51.992;4.504;2023-12-20T03:52:06;8.57;77.65
71177;DHT22;58877;51.992;4.504;2023-12-20T03:54:33;8.59;77.72
71177;DHT22;58877;51.992;4.504;2023-12-20T03:56:58;8.59;78.01
71177;DHT22;58877;51.992;4.504;2023-12-20T03:59:24;8.53;77.99
71177;DHT22;58877;51.992;4.504;2023-12-20T04:01:49;8.52;78.20
71177;DHT22;58877;51.992;4.504;2023-12-20T04:04:15;8.54;78.28
71177;DHT22;58877;51.992;4.504;2023-12-20T04:06:40;8.53;78.55
71177;DHT22;58877;51.992;4.504;2023-12-20T04:09:06;8.56;78.68
71177;DHT22;58877;51.992;4.504;2023-12-20T04:11:34;8.66;78.55
71177;DHT22;58877;51.992;4.504;2023-12-20T04:14:00;8.61;78.62
71177;DHT22;58877;51.992;4.504;2023-12-20T04:16:26;8.59;78.96
71177;DHT22;58877;51.992;4.504;2023-12-20T04:18:52;8.64;79.14
71177;DHT22;58877;51.992;4.504;2023-12-20T04:21:17;8.60;79.18
71177;DHT22;58877;51.992;4.504;2023-12-20T04:23:43;8.64;78.91
71177;DHT22;58877;51.992;4.504;2023-12-20T04:26:14;8.57;79.15
71177;DHT22;58877;51.992;4.504;2023-12-20T04:28:43;8.49;79.26
71177;DHT22;58877;51.992;4.504;2023-12-20T04:31:09;8.52;79.04
71177;DHT22;58877;51.992;4.504;2023-12-20T04:33:34;8.46;78.73
71177;DHT22;58877;51.992;4.504;2023-12-20T04:36:08;8.47;78.49
71177;DHT22;58877;51.992;4.504;2023-12-20T04:38:34;8.52;78.19
71177;DHT22;58877;51.992;4.504;2023-12-20T04:41:00;8.45;78.17
71177;DHT22;58877;51.992;4.504;2023-12-20T04:43:28;8.52;77.94
71177;DHT22;58877;51.992;4.504;2023-12-20T04:45:55;8.42;77.81
71177;DHT22;58877;51.992;4.504;2023-12-20T04:48:20;8.47;77.84
71177;DHT22;58877;51.992;4.504;2023-12-20T04:50:46;8.47;77.82
71177;DHT22;58877;51.992;4.504;2023-12-20T04:53:11;8.50;77.73
71177;DHT22;58877;51.992;4.504;2023-12-20T04:55:37;8.47;77.98
71177;DHT22;58877;51.992;4.504;2023-12-20T04:58:02;8.42;78.06
71177;DHT22;58877;51.992;4.504;2023-12-20T05:00:28;8.43;78.28
71177;DHT22;58877;51.992;4.504;2023-12-20T05:02:53;8.42;78.18
71177;DHT22;58877;51.992;4.504;2023-12-20T05:05:19;8.46;78.18
71177;DHT22;58877;51.992;4.504;2023-12-20T05:07:44;8.46;78.35
71177;DHT22;58877;51.992;4.504;2023-12-20T05:10:10;8.49;78.47
71177;DHT22;58877;51.992;4.504;2023-12-20T05:12:38;8.40;78.86
71177;DHT22;58877;51.992;4.504;2023-12-20T05:15:06;8.39;79.09
71177;DHT22;58877;51.992;4.504;2023-12-20T05:17:32;8.40;79.34
71177;DHT22;58877;51.992;4.504;2023-12-20T05:19:57;8.43;79.57
71177;DHT22;58877;51.992;4.504;2023-12-20T05:22:23;8.39;79.69
71177;DHT22;58877;51.992;4.504;2023-12-20T05:24:48;8.37;79.64
71177;DHT22;58877;51.992;4.504;2023-12-20T05:27:14;8.37;79.94
71177;DHT22;58877;51.992;4.504;2023-12-20T05:29:40;8.33;80.20
71177;DHT22;58877;51.992;4.504;2023-12-20T05:32:05;8.33;80.09
71177;DHT22;58877;51.992;4.504;2023-12-20T05:34:31;8.36;80.03
71177;DHT22;58877;51.992;4.504;2023-12-20T05:36:57;8.40;79.81
71177;DHT22;58877;51.992;4.504;2023-12-20T05:39:23;8.45;79.85
71177;DHT22;58877;51.992;4.504;2023-12-20T05:41:49;8.40;79.75
71177;DHT22;58877;51.992;4.504;2023-12-20T05:44:14;8.49;79.54
71177;DHT22;58877;51.992;4.504;2023-12-20T05:46:40;8.53;79.39
71177;DHT22;58877;51.992;4.504;2023-12-20T05:49:06;8.54;79.20
71177;DHT22;58877;51.992;4.504;2023-12-20T05:51:32;8.59;79.21
71177;DHT22;58877;51.992;4.504;2023-12-20T05:53:58;8.60;79.07
71177;DHT22;58877;51.992;4.504;2023-12-20T05:56:24;8.54;79.19
71177;DHT22;58877;51.992;4.504;2023-12-20T05:58:50;8.69;78.91
71177;DHT22;58877;51.992;4.504;2023-12-20T06:01:16;8.64;78.78
71177;DHT22;58877;51.992;4.504;2023-12-20T06:03:44;8.74;78.66
71177;DHT22;58877;51.992;4.504;2023-12-20T06:06:11;8.77;78.68
71177;DHT22;58877;51.992;4.504;2023-12-20T06:08:39;8.70;78.71
71177;DHT22;58877;51.992;4.504;2023-12-20T06:11:05;8.73;78.90
71177;DHT22;58877;51.992;4.504;2023-12-20T06:13:31;8.79;78.82
71177;DHT22;58877;51.992;4.504;2023-12-20T06:15:57;8.77;78.94
71177;DHT22;58877;51.992;4.504;2023-12-20T06:18:23;8.84;78.73
71177;DHT22;58877;51.992;4.504;2023-12-20T06:20:49;8.79;78.76
71177;DHT22;58877;51.992;4.504;2023-12-20T06:23:15;8.90;78.72
71177;DHT22;58877;51.992;4.504;2023-12-20T06:25:40;8.87;78.70
71177;DHT22;58877;51.992;4.504;2023-12-20T06:28:06;8.81;78.75
71177;DHT22;58877;51.992;4.504;2023-12-20T06:30:32;8.80;78.64
71177;DHT22;58877;51.992;4.504;2023-12-20T06:32:58;8.84;78.73
71177;DHT22;58877;51.992;4.504;2023-12-20T06:35:24;8.91;78.68
71177;DHT22;58877;51.992;4.504;2023-12-20T06:37:52;8.91;78.62
71177;DHT22;58877;51.992;4.504;2023-12-20T06:40:18;8.90;78.55
71177;DHT22;58877;51.992;4.504;2023-12-20T06:42:44;8.92;78.61
71177;DHT22;58877;51.992;4.504;2023-12-20T06:45:10;8.92;78.50
71177;DHT22;58877;51.992;4.504;2023-12-20T06:47:38;8.97;78.37
71177;DHT22;58877;51.992;4.504;2023-12-20T06:50:05;8.99;78.47
71177;DHT22;58877;51.992;4.504;2023-12-20T06:52:30;8.90;78.50
71177;DHT22;58877;51.992;4.504;2023-12-20T06:54:56;8.84;78.81
71177;DHT22;58877;51.992;4.504;2023-12-20T06:57:21;8.83;78.74
71177;DHT22;58877;51.992;4.504;2023-12-20T06:59:47;8.79;78.83
71177;DHT22;58877;51.992;4.504;2023-12-20T07:02:12;8.83;78.83
71177;DHT22;58877;51.992;4.504;2023-12-20T07:04:41;8.85;78.96
71177;DHT22;58877;51.992;4.504;2023-12-20T07:07:07;8.83;79.23
71177;DHT22;58877;51.992;4.504;2023-12-20T07:09:33;8.85;79.11
71177;DHT22;58877;51.992;4.504;2023-12-20T07:11:59;8.81;79.39
71177;DHT22;58877;51.992;4.504;2023-12-20T07:14:25;8.74;79.47
71177;DHT22;58877;51.992;4.504;2023-12-20T07:16:50;8.73;79.66
71177;DHT22;58877;51.992;4.504;2023-12-20T07:19:16;8.67;79.58
71177;DHT22;58877;51.992;4.504;2023-12-20T07:21:42;8.69;79.54
71177;DHT22;58877;51.992;4.504;2023-12-20T07:24:07;8.80;79.20
71177;DHT22;58877;51.992;4.504;2023-12-20T07:26:33;8.70;79.49
71177;DHT22;58877;51.992;4.504;2023-12-20T07:29:00;8.71;79.50
71177;DHT22;58877;51.992;4.504;2023-12-20T07:31:26;8.67;79.51
71177;DHT22;58877;51.992;4.504;2023-12-20T07:33:51;8.63;79.79
71177;DHT22;58877;51.992;4.504;2023-12-20T07:36:17;8.69;79.75
71177;DHT22;58877;51.992;4.504;2023-12-20T07:38:51;8.61;79.70
71177;DHT22;58877;51.992;4.504;2023-12-20T07:41:17;8.61;79.49
71177;DHT22;58877;51.992;4.504;2023-12-20T07:43:44;8.63;79.66
71177;DHT22;58877;51.992;4.504;2023-12-20T07:46:10;8.70;79.47
71177;DHT22;58877;51.992;4.504;2023-12-20T07:48:35;8.76;79.40
71177;DHT22;58877;51.992;4.504;2023-12-20T07:51:02;8.77;79.54
71177;DHT22;58877;51.992;4.504;2023-12-20T07:53:27;8.81;79.36
71177;DHT22;58877;51.992;4.504;2023-12-20T07:55:53;8.80;79.51
71177;DHT22;58877;51.992;4.504;2023-12-20T07:58:19;8.83;79.38
71177;DHT22;58877;51.992;4.504;2023-12-20T08:00:45;8.83;79.50
71177;DHT22;58877;51.992;4.504;2023-12-20T08:03:10;8.74;79.89
71177;DHT22;58877;51.992;4.504;2023-12-20T08:05:38;8.87;79.82
71177;DHT22;58877;51.992;4.504;2023-12-20T08:08:06;8.85;79.93
71177;DHT22;58877;51.992;4.504;2023-12-20T08:10:35;8.96;79.64
71177;DHT22;58877;51.992;4.504;2023-12-20T08:13:00;8.91;79.75
71177;DHT22;58877;51.992;4.504;2023-12-20T08:15:26;9.00;79.82
71177;DHT22;58877;51.992;4.504;2023-12-20T08:17:52;9.08;79.72
71177;DHT22;58877;51.992;4.504;2023-12-20T08:20:18;9.03;79.49
71177;DHT22;58877;51.992;4.504;2023-12-20T08:22:43;9.07;79.46
71177;DHT22;58877;51.992;4.504;2023-12-20T08:25:09;9.10;79.46
71177;DHT22;58877;51.992;4.504;2023-12-20T08:27:39;9.14;79.48
71177;DHT22;58877;51.992;4.504;2023-12-20T08:30:06;9.17;79.42
71177;DHT22;58877;51.992;4.504;2023-12-20T08:32:36;9.05;79.48
71177;DHT22;58877;51.992;4.504;2023-12-20T08:35:02;9.21;79.17
71177;DHT22;58877;51.992;4.504;2023-12-20T08:37:28;9.20;79.35
71177;DHT22;58877;51.992;4.504;2023-12-20T08:39:58;9.21;78.99
71177;DHT22;58877;51.992;4.504;2023-12-20T08:42:26;9.22;79.13
71177;DHT22;58877;51.992;4.504;2023-12-20T08:44:57;9.24;78.93
71177;DHT22;58877;51.992;4.504;2023-12-20T08:47:24;9.36;78.86
71177;DHT22;58877;51.992;4.504;2023-12-20T08:49:53;9.31;78.90
71177;DHT22;58877;51.992;4.504;2023-12-20T08:52:22;9.36;78.70
71177;DHT22;58877;51.992;4.504;2023-12-20T08:54:49;9.44;78.45
71177;DHT22;58877;51.992;4.504;2023-12-20T08:57:19;9.52;78.23
71177;DHT22;58877;51.992;4.504;2023-12-20T08:59:47;9.48;78.48
71177;DHT22;58877;51.992;4.504;2023-12-20T09:02:14;9.52;78.23
71177;DHT22;58877;51.992;4.504;2023-12-20T09:04:39;9.62;78.27
71177;DHT22;58877;51.992;4.504;2023-12-20T09:07:05;9.55;78.48
71177;DHT22;58877;51.992;4.504;2023-12-20T09:09:30;9.61;78.39
71177;DHT22;58877;51.992;4.504;2023-12-20T09:11:57;9.55;78.34
71177;DHT22;58877;51.992;4.504;2023-12-20T09:14:23;9.65;78.53
71177;DHT22;58877;51.992;4.504;2023-12-20T09:16:48;9.59;78.42
71177;DHT22;58877;51.992;4.504;2023-12-20T09:19:16;9.59;78.38
71177;DHT22;58877;51.992;4.504;2023-12-20T09:21:42;9.72;78.29
71177;DHT22;58877;51.992;4.504;2023-12-20T09:24:08;9.72;78.26
71177;DHT22;58877;51.992;4.504;2023-12-20T09:26:34;9.74;78.36
71177;DHT22;58877;51.992;4.504;2023-12-20T09:29:00;9.66;78.46
71177;DHT22;58877;51.992;4.504;2023-12-20T09:31:26;9.76;78.23
71177;DHT22;58877;51.992;4.504;2023-12-20T09:33:52;9.72;78.51
71177;DHT22;58877;51.992;4.504;2023-12-20T09:36:17;9.81;78.49
71177;DHT22;58877;51.992;4.504;2023-12-20T09:38:46;9.75;78.46
71177;DHT22;58877;51.992;4.504;2023-12-20T09:41:11;9.82;78.46
71177;DHT22;58877;51.992;4.504;2023-12-20T09:43:37;9.76;78.40
71177;DHT22;58877;51.992;4.504;2023-12-20T09:46:06;9.82;78.23
71177;DHT22;58877;51.992;4.504;2023-12-20T09:48:32;9.85;78.49
71177;DHT22;58877;51.992;4.504;2023-12-20T09:50:59;9.83;78.68
71177;DHT22;58877;51.992;4.504;2023-12-20T09:53:25;9.87;78.43
71177;DHT22;58877;51.992;4.504;2023-12-20T09:55:58;9.86;78.49
71177;DHT22;58877;51.992;4.504;2023-12-20T09:58:25;9.81;78.56
71177;DHT22;58877;51.992;4.504;2023-12-20T10:00:53;9.90;78.49
71177;DHT22;58877;51.992;4.504;2023-12-20T10:03:24;9.90;78.35
71177;DHT22;58877;51.992;4.504;2023-12-20T10:05:54;9.86;78.32
71177;DHT22;58877;51.992;4.504;2023-12-20T10:08:21;9.95;78.21
71177;DHT22;58877;51.992;4.504;2023-12-20T10:10:48;10.06;77.84
71177;DHT22;58877;51.992;4.504;2023-12-20T10:13:15;10.06;77.61
71177;DHT22;58877;51.992;4.504;2023-12-20T10:15:47;10.12;77.27
71177;DHT22;58877;51.992;4.504;2023-12-20T10:18:15;10.07;77.11
71177;DHT22;58877;51.992;4.504;2023-12-20T10:20:41;10.03;77.29
71177;DHT22;58877;51.992;4.504;2023-12-20T10:23:08;10.09;77.34
71177;DHT22;58877;51.992;4.504;2023-12-20T10:25:34;10.13;77.32
71177;DHT22;58877;51.992;4.504;2023-12-20T10:28:14;10.10;77.32
71177;DHT22;58877;51.992;4.504;2023-12-20T10:30:41;10.17;77.34
71177;DHT22;58877;51.992;4.504;2023-12-20T10:33:07;10.07;77.42
71177;DHT22;58877;51.992;4.504;2023-12-20T10:35:34;10.16;77.60
71177;DHT22;58877;51.992;4.504;2023-12-20T10:38:04;10.20;77.52
71177;DHT22;58877;51.992;4.504;2023-12-20T10:40:36;10.30;77.32
71177;DHT22;58877;51.992;4.504;2023-12-20T10:43:06;10.27;77.42
71177;DHT22;58877;51.992;4.504;2023-12-20T10:45:36;10.27;77.59
71177;DHT22;58877;51.992;4.504;2023-12-20T10:48:03;10.21;77.81
71177;DHT22;58877;51.992;4.504;2023-12-20T10:50:29;10.20;77.70
71177;DHT22;58877;51.992;4.504;2023-12-20T10:52:57;10.27;78.00
71177;DHT22;58877;51.992;4.504;2023-12-20T10:55:23;10.17;78.15
71177;DHT22;58877;51.992;4.504;2023-12-20T10:57:51;10.34;77.91
71177;DHT22;58877;51.992;4.504;2023-12-20T11:00:18;10.44;77.79
71177;DHT22;58877;51.992;4.504;2023-12-20T11:02:44;10.34;77.28
71177;DHT22;58877;51.992;4.504;2023-12-20T11:05:49;10.41;77.29
71177;DHT22;58877;51.992;4.504;2023-12-20T11:13:34;10.43;77.47
71177;DHT22;58877;51.992;4.504;2023-12-20T11:16:02;10.36;77.68
71177;DHT22;58877;51.992;4.504;2023-12-20T11:18:32;10.34;77.92
71177;DHT22;58877;51.992;4.504;2023-12-20T11:21:06;10.27;77.23
71177;DHT22;58877;51.992;4.504;2023-12-20T11:23:33;10.40;77.49
71177;DHT22;58877;51.992;4.504;2023-12-20T11:25:59;10.43;76.96
71177;DHT22;58877;51.992;4.504;2023-12-20T11:28:29;10.43;77.20
71177;DHT22;58877;51.992;4.504;2023-12-20T11:30:57;10.37;77.20
71177;DHT22;58877;51.992;4.504;2023-12-20T11:33:36;10.33;77.29
71177;DHT22;58877;51.992;4.504;2023-12-20T11:36:02;10.34;77.21
71177;DHT22;58877;51.992;4.504;2023-12-20T11:38:37;10.54;77.18
71177;DHT22;58877;51.992;4.504;2023-12-20T11:41:06;10.29;76.93
71177;DHT22;58877;51.992;4.504;2023-12-20T11:46:06;10.56;76.66
71177;DHT22;58877;51.992;4.504;2023-12-20T11:48:34;10.41;76.86
71177;DHT22;58877;51.992;4.504;2023-12-20T11:50:59;10.41;77.06
71177;DHT22;58877;51.992;4.504;2023-12-20T11:53:25;10.61;76.88
71177;DHT22;58877;51.992;4.504;2023-12-20T11:55:51;10.40;77.02
71177;DHT22;58877;51.992;4.504;2023-12-20T11:58:16;10.37;77.37
71177;DHT22;58877;51.992;4.504;2023-12-20T12:00:43;10.53;77.35
71177;DHT22;58877;51.992;4.504;2023-12-20T12:03:09;10.50;77.16
71177;DHT22;58877;51.992;4.504;2023-12-20T12:05:35;10.54;77.45
71177;DHT22;58877;51.992;4.504;2023-12-20T12:08:02;10.40;77.33
71177;DHT22;58877;51.992;4.504;2023-12-20T12:10:33;10.41;77.53
71177;DHT22;58877;51.992;4.504;2023-12-20T12:12:59;10.47;77.52
71177;DHT22;58877;51.992;4.504;2023-12-20T12:15:26;10.39;77.41
71177;DHT22;58877;51.992;4.504;2023-12-20T12:17:57;10.33;77.42
71177;DHT22;58877;51.992;4.504;2023-12-20T12:20:24;10.41;77.47
71177;DHT22;58877;51.992;4.504;2023-12-20T12:23:05;10.41;77.19
71177;DHT22;58877;51.992;4.504;2023-12-20T12:25:34;10.37;76.95
71177;DHT22;58877;51.992;4.504;2023-12-20T12:28:00;10.37;76.83
71177;DHT22;58877;51.992;4.504;2023-12-20T12:30:26;10.49;76.84
71177;DHT22;58877;51.992;4.504;2023-12-20T12:32:52;10.49;76.41
71177;DHT22;58877;51.992;4.504;2023-12-20T12:35:18;10.44;76.41
71177;DHT22;58877;51.992;4.504;2023-12-20T12:37:44;10.50;76.57
71177;DHT22;58877;51.992;4.504;2023-12-20T12:40:15;10.54;76.44
71177;DHT22;58877;51.992;4.504;2023-12-20T12:42:45;10.50;76.64
71177;DHT22;58877;51.992;4.504;2023-12-20T12:45:11;10.51;76.34
71177;DHT22;58877;51.992;4.504;2023-12-20T12:47:38;10.40;76.57
71177;DHT22;58877;51.992;4.504;2023-12-20T12:50:04;10.41;76.96
71177;DHT22;58877;51.992;4.504;2023-12-20T12:52:34;10.37;76.68
71177;DHT22;58877;51.992;4.504;2023-12-20T12:55:04;10.39;77.29
71177;DHT22;58877;51.992;4.504;2023-12-20T12:57:30;10.49;77.12
71177;DHT22;58877;51.992;4.504;2023-12-20T12:59:55;10.39;77.49
71177;DHT22;58877;51.992;4.504;2023-12-20T13:02:21;10.49;77.31
71177;DHT22;58877;51.992;4.504;2023-12-20T13:04:47;10.47;77.48
71177;DHT22;58877;51.992;4.504;2023-12-20T13:07:13;10.44;77.48
71177;DHT22;58877;51.992;4.504;2023-12-20T13:09:39;10.36;77.87
71177;DHT22;58877;51.992;4.504;2023-12-20T13:12:06;10.37;78.19
71177;DHT22;58877;51.992;4.504;2023-12-20T13:14:40;10.30;77.96
71177;DHT22;58877;51.992;4.504;2023-12-20T13:17:06;10.33;78.38
71177;DHT22;58877;51.992;4.504;2023-12-20T13:19:32;10.32;78.19
71177;DHT22;58877;51.992;4.504;2023-12-20T13:21:57;10.34;78.57
71177;DHT22;58877;51.992;4.504;2023-12-20T13:24:26;10.20;78.55
71177;DHT22;58877;51.992;4.504;2023-12-20T13:26:51;10.24;78.51
71177;DHT22;58877;51.992;4.504;2023-12-20T13:29:17;10.26;78.57
71177;DHT22;58877;51.992;4.504;2023-12-20T13:31:42;10.27;78.76
71177;DHT22;58877;51.992;4.504;2023-12-20T13:34:08;10.29;78.59
71177;DHT22;58877;51.992;4.504;2023-12-20T13:36:34;10.33;78.49
71177;DHT22;58877;51.992;4.504;2023-12-20T13:38:59;10.36;78.59
71177;DHT22;58877;51.992;4.504;2023-12-20T13:41:25;10.26;78.55
71177;DHT22;58877;51.992;4.504;2023-12-20T13:43:54;10.37;78.71
71177;DHT22;58877;51.992;4.504;2023-12-20T13:46:19;10.24;78.59
71177;DHT22;58877;51.992;4.504;2023-12-20T13:48:45;10.32;78.92
71177;DHT22;58877;51.992;4.504;2023-12-20T13:51:11;10.21;78.82
71177;DHT22;58877;51.992;4.504;2023-12-20T13:53:36;10.29;79.07
71177;DHT22;58877;51.992;4.504;2023-12-20T13:56:06;10.37;78.60
71177;DHT22;58877;51.992;4.504;2023-12-20T13:58:33;10.20;79.20
71177;DHT22;58877;51.992;4.504;2023-12-20T14:00:58;10.30;79.07
71177;DHT22;58877;51.992;4.504;2023-12-20T14:03:24;10.27;78.70
71177;DHT22;58877;51.992;4.504;2023-12-20T14:05:49;10.19;79.20
71177;DHT22;58877;51.992;4.504;2023-12-20T14:08:15;10.23;79.36
71177;DHT22;58877;51.992;4.504;2023-12-20T14:10:41;10.23;79.22
71177;DHT22;58877;51.992;4.504;2023-12-20T14:13:06;10.21;79.43
71177;DHT22;58877;51.992;4.504;2023-12-20T14:15:32;10.21;79.70
71177;DHT22;58877;51.992;4.504;2023-12-20T14:18:06;10.30;79.53
71177;DHT22;58877;51.992;4.504;2023-12-20T14:20:33;10.32;79.66
71177;DHT22;58877;51.992;4.504;2023-12-20T14:23:02;10.36;79.68
71177;DHT22;58877;51.992;4.504;2023-12-20T14:25:31;10.21;80.14
71177;DHT22;58877;51.992;4.504;2023-12-20T14:27:57;10.20;80.20
71177;DHT22;58877;51.992;4.504;2023-12-20T14:30:23;10.30;80.07
71177;DHT22;58877;51.992;4.504;2023-12-20T14:32:48;10.10;80.45
71177;DHT22;58877;51.992;4.504;2023-12-20T14:35:14;10.13;80.36
71177;DHT22;58877;51.992;4.504;2023-12-20T14:37:40;10.06;80.59
71177;DHT22;58877;51.992;4.504;2023-12-20T14:40:06;10.12;80.43
71177;DHT22;58877;51.992;4.504;2023-12-20T14:42:40;10.13;80.38
71177;DHT22;58877;51.992;4.504;2023-12-20T14:45:07;10.14;80.17
71177;DHT22;58877;51.992;4.504;2023-12-20T14:47:33;10.14;80.08
71177;DHT22;58877;51.992;4.504;2023-12-20T14:49:59;10.06;80.28
71177;DHT22;58877;51.992;4.504;2023-12-20T14:52:25;10.09;80.26
71177;DHT22;58877;51.992;4.504;2023-12-20T14:54:50;10.14;80.13
71177;DHT22;58877;51.992;4.504;2023-12-20T14:57:19;10.06;80.39
71177;DHT22;58877;51.992;4.504;2023-12-20T14:59:44;10.12;80.70
71177;DHT22;58877;51.992;4.504;2023-12-20T15:02:10;10.07;80.76
71177;DHT22;58877;51.992;4.504;2023-12-20T15:04:41;9.97;81.23
71177;DHT22;58877;51.992;4.504;2023-12-20T15:07:07;10.00;81.23
71177;DHT22;58877;51.992;4.504;2023-12-20T15:09:35;10.03;81.47
71177;DHT22;58877;51.992;4.504;2023-12-20T15:12:01;10.00;81.53
71177;DHT22;58877;51.992;4.504;2023-12-20T15:14:26;9.87;81.93
71177;DHT22;58877;51.992;4.504;2023-12-20T15:16:53;9.93;81.99
71177;DHT22;58877;51.992;4.504;2023-12-20T15:19:23;9.99;82.01
71177;DHT22;58877;51.992;4.504;2023-12-20T15:21:51;9.96;82.09
71177;DHT22;58877;51.992;4.504;2023-12-20T15:24:17;9.89;82.25
71177;DHT22;58877;51.992;4.504;2023-12-20T15:26:46;9.90;82.60
71177;DHT22;58877;51.992;4.504;2023-12-20T15:29:16;9.97;82.65
71177;DHT22;58877;51.992;4.504;2023-12-20T15:31:43;9.99;82.56
71177;DHT22;58877;51.992;4.504;2023-12-20T15:34:09;9.96;82.41
71177;DHT22;58877;51.992;4.504;2023-12-20T15:36:42;10.00;82.59
71177;DHT22;58877;51.992;4.504;2023-12-20T15:39:07;10.03;82.76
71177;DHT22;58877;51.992;4.504;2023-12-20T15:41:34;9.93;83.14
71177;DHT22;58877;51.992;4.504;2023-12-20T15:44:00;10.09;83.04
71177;DHT22;58877;51.992;4.504;2023-12-20T15:46:25;10.00;83.00